»·PEaware :: N4620Y 1CL1-KSNA

N4620Y :: 1CL1-KSNA

FLIGHT INFORMATION

Flight Status: Arrived
Operator: Privately registered:
United States
More flights under this callsign
Pilot: Evan P. (5770)
Aircraft: CESSNA T210 TURBO CENTURION
(T210)
More flights by this aircraft type
Origin: 1CL1 Little Buttes Antique Airfield
United States
Destination: KSNA John Wayne-Orange Co
United States
More flights between these airports :: More routes between these airports
Route: +PMD V201 BERRI V459 SLI
File this flight plan on PilotEdge
Remarks: TEC route EDWP2
Altitude:
(Current/Filed)
9,000ft
Speed:
(Current/Filed)
160kts
Departed: 09-Oct-19 11:59 AM
Arrived: 09-Oct-19 12:36 PM
Distance/Time
Traveled:
70nm/0:37
Distance/Time
To Go:
Arrived

Flight Plot

Page will automatically refresh every two minutes.

Flight plan parsing failed; only flown route is shown


Map Options




Map Legend


Flown Route
Filed Route
Departure Airport
Arrival Airport
Navaid (VOR, NDB)
Fix

Horizontal Profiles

Position Reports

Time Latitude Longitude Heading Altitude Ground
Speed
09-Oct-19 11:49 34.795186 -118.273167 254 2428ft 0kts
09-Oct-19 11:50 34.795186 -118.273167 254 2428ft 0kts
09-Oct-19 11:51 34.795186 -118.273167 254 2428ft 0kts
09-Oct-19 11:52 34.795186 -118.273167 254 2428ft 0kts
09-Oct-19 11:53 34.795186 -118.273167 254 2428ft 0kts
09-Oct-19 11:54 34.795186 -118.273167 254 2428ft 0kts
09-Oct-19 11:55 34.795186 -118.273167 254 2428ft 0kts
09-Oct-19 11:56 34.795186 -118.273167 254 2428ft 0kts
09-Oct-19 11:57 34.795186 -118.273167 253 2428ft 0kts
09-Oct-19 11:58 34.782962 -118.285225 131 3221ft 121kts
09-Oct-19 11:59 34.765386 -118.247298 130 4745ft 134kts
09-Oct-19 12:00 34.741923 -118.213848 133 6416ft 119kts
09-Oct-19 12:01 34.720993 -118.185464 134 7687ft 119kts
09-Oct-19 12:02 34.696599 -118.152396 133 8777ft 139kts
09-Oct-19 12:03 34.666056 -118.111003 133 9008ft 188kts
09-Oct-19 12:04 34.624652 -118.071310 181 9003ft 194kts
09-Oct-19 12:05 34.574802 -118.093956 207 8999ft 192kts
09-Oct-19 12:06 34.525805 -118.119945 207 8999ft 192kts
09-Oct-19 12:07 34.476675 -118.145999 207 8999ft 192kts
09-Oct-19 12:08 34.427612 -118.171982 207 9006ft 191kts
09-Oct-19 12:09 34.378722 -118.197845 206 9008ft 191kts
09-Oct-19 12:10 34.329713 -118.223706 206 8999ft 192kts
09-Oct-19 12:11 34.280748 -118.249544 207 8999ft 192kts
09-Oct-19 12:12 34.231573 -118.275432 207 9000ft 192kts
09-Oct-19 12:13 34.180206 -118.283569 155 9008ft 201kts
09-Oct-19 12:14 34.130010 -118.254446 156 9011ft 200kts
09-Oct-19 12:15 34.079003 -118.224877 156 8998ft 200kts
09-Oct-19 12:16 34.026548 -118.202991 180 8722ft 205kts
09-Oct-19 12:17 33.970991 -118.201890 181 7707ft 194kts
09-Oct-19 12:18 33.917995 -118.201591 181 6995ft 176kts
09-Oct-19 12:19 33.873783 -118.201305 181 6996ft 154kts
09-Oct-19 12:20 33.831770 -118.200836 181 6998ft 148kts
09-Oct-19 12:21 33.790334 -118.200067 181 7011ft 159kts
09-Oct-19 12:22 33.740722 -118.199592 181 7001ft 186kts
09-Oct-19 12:23 33.688033 -118.199257 181 6945ft 194kts
09-Oct-19 12:24 33.634233 -118.199258 181 5923ft 187kts
09-Oct-19 12:25 33.582735 -118.198759 171 4974ft 183kts
09-Oct-19 12:26 33.564166 -118.157007 66 5003ft 152kts
09-Oct-19 12:27 33.585908 -118.106244 58 4996ft 181kts
09-Oct-19 12:28 33.610420 -118.051644 59 5011ft 187kts
09-Oct-19 12:29 33.641296 -117.999723 27 4113ft 213kts
09-Oct-19 12:30 33.672226 -117.953166 86 2952ft 184kts
09-Oct-19 12:31 33.705989 -117.917876 27 2269ft 138kts
09-Oct-19 12:32 33.726484 -117.892411 101 1637ft 109kts
09-Oct-19 12:33 33.712623 -117.862638 146 783ft 93kts
09-Oct-19 12:34 33.691258 -117.858974 205 354ft 76kts
09-Oct-19 12:35 33.676156 -117.868466 211 52ft 33kts
09-Oct-19 12:36 33.676070 -117.870065 294 52ft 7kts
09-Oct-19 12:37 33.676144 -117.871155 312 52ft 0kts
09-Oct-19 12:38 33.676144 -117.871155 312 52ft 0kts
09-Oct-19 12:39 33.676144 -117.871155 312 52ft 0kts

Navigation Log

Ident Type
Flight plan parsing failed, navigation log unavailable